Time;durP1;ratioP1;P1;durP2;ratioP2;P2;SDS_P1;SDS_P2;PMS_P1;PMS_P2;Temp;Humidity;BMP_temperature;BMP_pressure;BME280_temperature;BME280_humidity;BME280_pressure;Samples;Min_cycle;Max_cycle;Signal;HPM_P1;HPM_P2
2023/08/02 00:00:23;;;;;;;27.52;5.28;;;;;;;;;;4993074;28;94411;-72
2023/08/02 00:02:49;;;;;;;20.98;4.68;;;;;;;;;;4992953;28;92521;-72
2023/08/02 00:05:16;;;;;;;19.25;4.40;;;;;;;;;;4992268;28;93228;-72
2023/08/02 00:07:42;;;;;;;19.13;4.07;;;;;;;;;;4995056;28;94070;-74
2023/08/02 00:10:09;;;;;;;14.20;3.90;;;;;;;;;;4991302;28;92350;-73
2023/08/02 00:12:35;;;;;;;18.27;4.10;;;;;;;;;;4990825;28;93151;-71
2023/08/02 00:15:02;;;;;;;20.88;4.63;;;;;;;;;;4999636;28;93098;-72
2023/08/02 00:17:28;;;;;;;12.07;3.80;;;;;;;;;;4997058;28;93188;-72
2023/08/02 00:19:54;;;;;;;23.88;4.50;;;;;;;;;;4993170;28;92547;-72
2023/08/02 00:22:21;;;;;;;12.88;4.32;;;;;;;;;;4991172;28;95112;-70
2023/08/02 00:24:47;;;;;;;23.00;4.75;;;;;;;;;;4989851;28;95599;-70
2023/08/02 00:27:13;;;;;;;14.13;4.18;;;;;;;;;;4988582;28;94262;-70
2023/08/02 00:29:40;;;;;;;15.70;4.07;;;;;;;;;;4991920;28;92586;-70
2023/08/02 00:32:06;;;;;;;17.48;4.82;;;;;;;;;;4994424;28;93149;-71
2023/08/02 00:34:33;;;;;;;12.95;4.22;;;;;;;;;;5003390;28;93403;-70
2023/08/02 00:37:01;;;;;;;15.55;4.75;;;;;;;;;;4996501;28;95259;-70
2023/08/02 00:39:27;;;;;;;17.70;4.63;;;;;;;;;;4989874;28;93724;-70
2023/08/02 00:41:55;;;;;;;18.05;4.85;;;;;;;;;;4992700;28;92540;-70
2023/08/02 00:44:21;;;;;;;9.95;4.05;;;;;;;;;;4992025;28;94179;-70
2023/08/02 00:46:47;;;;;;;15.38;4.60;;;;;;;;;;4988316;28;97163;-69
2023/08/02 00:49:14;;;;;;;13.45;5.13;;;;;;;;;;4987252;28;92424;-70
2023/08/02 00:51:40;;;;;;;21.95;5.07;;;;;;;;;;4989071;28;93340;-70
2023/08/02 00:54:07;;;;;;;16.52;4.82;;;;;;;;;;4997736;28;93519;-70
2023/08/02 00:56:33;;;;;;;26.80;4.70;;;;;;;;;;4995318;28;92406;-70
2023/08/02 00:59:00;;;;;;;25.50;5.07;;;;;;;;;;4992110;28;94552;-70
2023/08/02 01:01:26;;;;;;;14.05;4.82;;;;;;;;;;4987902;28;92522;-73
2023/08/02 01:03:53;;;;;;;17.42;5.00;;;;;;;;;;4997034;28;94254;-72
2023/08/02 01:06:22;;;;;;;19.15;5.80;;;;;;;;;;4991440;28;93393;-72
2023/08/02 01:08:51;;;;;;;9.50;4.17;;;;;;;;;;4991921;28;92874;-72
2023/08/02 01:11:24;;;;;;;20.20;4.85;;;;;;;;;;4990540;28;94957;-72
2023/08/02 01:13:51;;;;;;;17.95;4.80;;;;;;;;;;4992249;28;93411;-72
2023/08/02 01:16:18;;;;;;;15.18;4.90;;;;;;;;;;4991789;28;93076;-73
2023/08/02 01:18:44;;;;;;;15.70;4.80;;;;;;;;;;4986123;28;94219;-72
2023/08/02 01:21:11;;;;;;;14.32;4.30;;;;;;;;;;4983592;28;92678;-72
2023/08/02 01:23:37;;;;;;;18.98;4.70;;;;;;;;;;4983965;28;93874;-72
2023/08/02 01:26:04;;;;;;;12.73;4.25;;;;;;;;;;4987235;28;94212;-72
2023/08/02 01:28:32;;;;;;;19.90;4.32;;;;;;;;;;4988057;28;91819;-72
2023/08/02 01:31:00;;;;;;;15.95;4.65;;;;;;;;;;4989304;28;92560;-72
2023/08/02 01:33:27;;;;;;;14.80;5.15;;;;;;;;;;4991681;28;93419;-72
2023/08/02 01:35:53;;;;;;;18.88;4.82;;;;;;;;;;4990069;28;95014;-72
2023/08/02 01:38:20;;;;;;;17.23;5.00;;;;;;;;;;4992874;28;95655;-72
2023/08/02 01:40:46;;;;;;;11.75;4.50;;;;;;;;;;4993407;28;93335;-72
2023/08/02 01:43:12;;;;;;;15.45;4.97;;;;;;;;;;4991373;28;93115;-72
2023/08/02 01:45:39;;;;;;;11.55;4.47;;;;;;;;;;4990306;28;93420;-72
2023/08/02 01:48:05;;;;;;;12.25;4.15;;;;;;;;;;4992726;28;92526;-73
2023/08/02 01:50:32;;;;;;;15.20;4.35;;;;;;;;;;4994875;28;93311;-69
2023/08/02 01:52:58;;;;;;;16.48;5.03;;;;;;;;;;4996326;28;92997;-70
2023/08/02 01:55:24;;;;;;;16.27;4.82;;;;;;;;;;4992058;28;92825;-70
2023/08/02 01:57:51;;;;;;;17.00;4.47;;;;;;;;;;4994770;28;93786;-70
2023/08/02 02:00:17;;;;;;;14.95;4.82;;;;;;;;;;4993937;28;95770;-71
2023/08/02 02:02:44;;;;;;;15.68;4.85;;;;;;;;;;4995873;28;92513;-71
2023/08/02 02:05:10;;;;;;;14.45;4.07;;;;;;;;;;4989137;28;93461;-71
2023/08/02 02:07:36;;;;;;;14.93;4.20;;;;;;;;;;4992219;28;93198;-71
2023/08/02 02:10:03;;;;;;;17.45;4.30;;;;;;;;;;4997638;28;93231;-73
2023/08/02 02:12:29;;;;;;;18.45;4.43;;;;;;;;;;4990497;28;93474;-74
2023/08/02 02:14:56;;;;;;;17.17;4.22;;;;;;;;;;4994197;28;92658;-74
2023/08/02 02:17:23;;;;;;;18.30;3.92;;;;;;;;;;4994901;28;93164;-73
2023/08/02 02:19:49;;;;;;;12.05;3.60;;;;;;;;;;4992065;28;92626;-74
2023/08/02 02:22:15;;;;;;;16.73;4.38;;;;;;;;;;4991854;28;92491;-74
2023/08/02 02:24:42;;;;;;;11.07;4.18;;;;;;;;;;4993562;28;95285;-74
2023/08/02 02:27:08;;;;;;;11.50;4.03;;;;;;;;;;4988944;28;92468;-72
2023/08/02 02:29:35;;;;;;;16.98;4.32;;;;;;;;;;4995136;28;93162;-72
2023/08/02 02:32:01;;;;;;;11.20;4.20;;;;;;;;;;4990866;28;93337;-72
2023/08/02 02:34:27;;;;;;;13.10;4.38;;;;;;;;;;4993744;28;92491;-73
2023/08/02 02:36:54;;;;;;;12.88;4.00;;;;;;;;;;4992554;28;93250;-72
2023/08/02 02:39:20;;;;;;;21.10;4.10;;;;;;;;;;4989519;28;93714;-73
2023/08/02 02:41:46;;;;;;;16.17;4.25;;;;;;;;;;4988697;28;91799;-72
2023/08/02 02:44:13;;;;;;;15.43;3.97;;;;;;;;;;4992253;28;92544;-71
2023/08/02 02:46:39;;;;;;;10.45;3.58;;;;;;;;;;5000870;28;93862;-71
2023/08/02 02:49:06;;;;;;;12.75;4.10;;;;;;;;;;4991426;28;94799;-71
2023/08/02 02:51:33;;;;;;;12.80;4.65;;;;;;;;;;4987829;28;93431;-71
2023/08/02 02:53:59;;;;;;;15.57;4.40;;;;;;;;;;4992421;28;92997;-70
2023/08/02 02:56:25;;;;;;;13.23;4.18;;;;;;;;;;4990051;28;93129;-71
2023/08/02 02:58:54;;;;;;;12.15;4.28;;;;;;;;;;4990839;28;94400;-71
2023/08/02 03:01:21;;;;;;;13.98;4.28;;;;;;;;;;4995968;28;92505;-71
2023/08/02 03:03:47;;;;;;;18.48;4.38;;;;;;;;;;4993522;28;93160;-71
2023/08/02 03:06:13;;;;;;;11.15;3.58;;;;;;;;;;4990296;28;92694;-71
2023/08/02 03:08:40;;;;;;;12.13;3.80;;;;;;;;;;4996754;28;92509;-71
2023/08/02 03:11:06;;;;;;;10.80;3.75;;;;;;;;;;4988838;28;93492;-72
2023/08/02 03:13:33;;;;;;;18.52;4.10;;;;;;;;;;4988804;28;94980;-73
2023/08/02 03:15:59;;;;;;;12.13;4.25;;;;;;;;;;4988947;28;95619;-73
2023/08/02 03:18:25;;;;;;;11.48;3.75;;;;;;;;;;4993687;28;94454;-73
2023/08/02 03:20:52;;;;;;;14.02;4.88;;;;;;;;;;4986270;28;92469;-73
2023/08/02 03:23:18;;;;;;;13.82;4.13;;;;;;;;;;4988314;28;95210;-73
2023/08/02 03:25:44;;;;;;;18.30;4.32;;;;;;;;;;4989197;28;92467;-73
2023/08/02 03:28:11;;;;;;;14.00;4.85;;;;;;;;;;4992653;28;93513;-73
2023/08/02 03:30:37;;;;;;;14.23;4.07;;;;;;;;;;4994630;28;93312;-74
2023/08/02 03:33:04;;;;;;;14.23;4.18;;;;;;;;;;4990946;28;94430;-73
2023/08/02 03:35:30;;;;;;;10.65;3.55;;;;;;;;;;4987232;28;96666;-72
2023/08/02 03:37:56;;;;;;;10.18;4.47;;;;;;;;;;4990286;28;95816;-72
2023/08/02 03:40:23;;;;;;;14.10;4.32;;;;;;;;;;4989999;28;92658;-72
2023/08/02 03:42:49;;;;;;;8.77;4.20;;;;;;;;;;4992017;28;94187;-73
2023/08/02 03:45:16;;;;;;;12.43;4.28;;;;;;;;;;4992428;28;93711;-74
2023/08/02 03:47:42;;;;;;;13.02;4.30;;;;;;;;;;4989837;28;92875;-72
2023/08/02 03:50:08;;;;;;;14.63;5.03;;;;;;;;;;4991742;28;92510;-71
2023/08/02 03:52:35;;;;;;;15.68;4.70;;;;;;;;;;4983770;28;92903;-72
2023/08/02 03:55:01;;;;;;;14.30;4.13;;;;;;;;;;4985272;28;93137;-73
2023/08/02 03:57:28;;;;;;;13.50;4.35;;;;;;;;;;4991275;28;94475;-72
2023/08/02 03:59:54;;;;;;;15.95;4.13;;;;;;;;;;4989021;28;92757;-72
2023/08/02 04:02:21;;;;;;;16.05;3.90;;;;;;;;;;4987918;28;94844;-73
2023/08/02 04:04:47;;;;;;;16.90;4.50;;;;;;;;;;4991185;28;93471;-73
2023/08/02 04:07:14;;;;;;;12.38;4.07;;;;;;;;;;4992247;28;92850;-72
2023/08/02 04:09:40;;;;;;;12.55;3.78;;;;;;;;;;4991886;28;93172;-73
2023/08/02 04:12:07;;;;;;;11.75;3.88;;;;;;;;;;4993716;28;93436;-71
2023/08/02 04:14:33;;;;;;;16.42;3.80;;;;;;;;;;4994858;28;93121;-70
2023/08/02 04:17:00;;;;;;;14.70;4.32;;;;;;;;;;4991190;28;94091;-70
2023/08/02 04:19:27;;;;;;;13.90;4.88;;;;;;;;;;4990270;28;91725;-70
2023/08/02 04:21:53;;;;;;;14.85;3.95;;;;;;;;;;4997970;28;92436;-72
2023/08/02 04:24:20;;;;;;;13.77;3.97;;;;;;;;;;4990209;28;93462;-73
2023/08/02 04:26:46;;;;;;;11.02;3.72;;;;;;;;;;4986082;28;95318;-73
2023/08/02 04:29:13;;;;;;;15.65;4.68;;;;;;;;;;4991635;28;95419;-73
2023/08/02 04:31:39;;;;;;;8.73;3.28;;;;;;;;;;4991028;28;92657;-74
2023/08/02 04:34:05;;;;;;;10.95;3.50;;;;;;;;;;4992648;28;92417;-74
2023/08/02 04:36:32;;;;;;;11.05;4.28;;;;;;;;;;4990748;28;93069;-73
2023/08/02 04:39:02;;;;;;;9.75;3.85;;;;;;;;;;4991454;28;92716;-73
2023/08/02 04:41:28;;;;;;;12.33;3.90;;;;;;;;;;4987375;28;96539;-73
2023/08/02 04:43:54;;;;;;;13.10;3.60;;;;;;;;;;4988929;28;92629;-72
2023/08/02 04:46:21;;;;;;;12.48;3.60;;;;;;;;;;4992455;28;92551;-73
2023/08/02 04:48:48;;;;;;;9.70;3.65;;;;;;;;;;4991577;28;94245;-72
2023/08/02 04:51:14;;;;;;;16.63;4.18;;;;;;;;;;4990169;28;97288;-74
2023/08/02 04:53:42;;;;;;;16.50;4.00;;;;;;;;;;4995784;28;92515;-74
2023/08/02 04:56:09;;;;;;;10.98;3.42;;;;;;;;;;4994478;28;93170;-72
2023/08/02 04:58:35;;;;;;;8.02;3.30;;;;;;;;;;4991892;28;92488;-74
2023/08/02 05:01:02;;;;;;;12.30;3.67;;;;;;;;;;4990692;28;94148;-75
2023/08/02 05:03:29;;;;;;;8.15;3.20;;;;;;;;;;4991385;28;93820;-72
2023/08/02 05:05:59;;;;;;;10.70;3.28;;;;;;;;;;4991749;28;92538;-72
2023/08/02 05:08:26;;;;;;;11.40;3.72;;;;;;;;;;4994978;28;96020;-71
2023/08/02 05:10:53;;;;;;;8.77;3.75;;;;;;;;;;4983919;28;93415;-72
2023/08/02 05:13:21;;;;;;;8.70;3.53;;;;;;;;;;4990602;28;92451;-72
2023/08/02 05:15:47;;;;;;;9.43;3.85;;;;;;;;;;4992490;28;95003;-71
2023/08/02 05:18:14;;;;;;;12.15;3.88;;;;;;;;;;4994841;28;93407;-72
2023/08/02 05:20:40;;;;;;;7.47;3.78;;;;;;;;;;4991928;28;94124;-72
2023/08/02 05:23:06;;;;;;;19.38;3.70;;;;;;;;;;4991743;28;93395;-72
2023/08/02 05:25:34;;;;;;;9.57;3.15;;;;;;;;;;4993466;28;92673;-71
2023/08/02 05:28:01;;;;;;;14.32;3.90;;;;;;;;;;4991115;28;92911;-71
2023/08/02 05:30:28;;;;;;;7.45;3.67;;;;;;;;;;4989818;28;94631;-73
2023/08/02 05:32:54;;;;;;;7.30;3.50;;;;;;;;;;4993190;28;92027;-72
2023/08/02 05:35:21;;;;;;;6.78;3.40;;;;;;;;;;4992005;28;92636;-74
2023/08/02 05:37:48;;;;;;;11.73;3.50;;;;;;;;;;4994975;28;93401;-75
2023/08/02 05:40:14;;;;;;;11.35;3.65;;;;;;;;;;4989552;28;94827;-75
2023/08/02 05:42:40;;;;;;;13.05;3.65;;;;;;;;;;4996138;28;94718;-75
2023/08/02 05:45:07;;;;;;;9.15;3.38;;;;;;;;;;4990481;28;92534;-74
2023/08/02 05:47:34;;;;;;;15.48;4.35;;;;;;;;;;4995726;28;93596;-74
2023/08/02 05:50:00;;;;;;;8.13;4.03;;;;;;;;;;4988623;28;93428;-74
2023/08/02 05:52:27;;;;;;;6.93;4.13;;;;;;;;;;4987899;28;92563;-74
2023/08/02 05:54:53;;;;;;;9.23;3.97;;;;;;;;;;4988179;28;93115;-74
2023/08/02 05:57:19;;;;;;;9.25;4.13;;;;;;;;;;4995555;28;92813;-73
2023/08/02 05:59:48;;;;;;;9.18;4.85;;;;;;;;;;4997573;28;92466;-73
2023/08/02 06:02:14;;;;;;;10.82;4.65;;;;;;;;;;5003063;28;94303;-73
2023/08/02 06:04:42;;;;;;;14.32;5.07;;;;;;;;;;4986766;28;96194;-73
2023/08/02 06:07:08;;;;;;;9.40;4.25;;;;;;;;;;4991976;28;94211;-73
2023/08/02 06:09:35;;;;;;;7.57;4.97;;;;;;;;;;4996632;28;93345;-73
2023/08/02 06:12:01;;;;;;;8.55;5.00;;;;;;;;;;4994360;28;92320;-73
2023/08/02 06:14:28;;;;;;;10.70;5.25;;;;;;;;;;4993965;28;93135;-74
2023/08/02 06:16:54;;;;;;;14.05;6.22;;;;;;;;;;4992625;28;93619;-73
2023/08/02 06:19:20;;;;;;;10.45;5.20;;;;;;;;;;4992475;28;92747;-73
2023/08/02 06:21:47;;;;;;;12.13;5.47;;;;;;;;;;4991616;28;93678;-73
2023/08/02 06:24:13;;;;;;;12.90;5.40;;;;;;;;;;4992536;28;92579;-72
2023/08/02 06:26:40;;;;;;;12.93;5.43;;;;;;;;;;4989971;28;93501;-73
2023/08/02 06:29:08;;;;;;;10.55;5.10;;;;;;;;;;4980208;28;96156;-72
2023/08/02 06:31:34;;;;;;;11.27;5.03;;;;;;;;;;4991434;28;92460;-73
2023/08/02 06:34:01;;;;;;;10.73;5.22;;;;;;;;;;4990280;28;93471;-73
2023/08/02 06:36:27;;;;;;;16.98;5.38;;;;;;;;;;4986721;28;93492;-73
2023/08/02 06:38:54;;;;;;;10.13;4.82;;;;;;;;;;4992110;28;92651;-73
2023/08/02 06:41:20;;;;;;;8.25;5.53;;;;;;;;;;4992129;28;93210;-72
2023/08/02 06:43:47;;;;;;;9.30;4.20;;;;;;;;;;5000723;28;95372;-72
2023/08/02 06:46:13;;;;;;;9.07;5.00;;;;;;;;;;4989595;28;92235;-73
2023/08/02 06:48:40;;;;;;;5.45;4.60;;;;;;;;;;4992278;28;93781;-73
2023/08/02 06:51:10;;;;;;;9.65;4.60;;;;;;;;;;4993250;28;92477;-73
2023/08/02 06:53:36;;;;;;;11.25;4.57;;;;;;;;;;4990526;28;94809;-73
2023/08/02 06:56:09;;;;;;;6.13;4.47;;;;;;;;;;4990682;28;93450;-72
2023/08/02 06:58:36;;;;;;;8.90;4.38;;;;;;;;;;4986664;28;94063;-73
2023/08/02 07:01:10;;;;;;;7.05;3.88;;;;;;;;;;4993314;28;93457;-73
2023/08/02 07:03:36;;;;;;;6.20;4.10;;;;;;;;;;4989970;28;93184;-72
2023/08/02 07:06:07;;;;;;;7.72;4.57;;;;;;;;;;4993948;28;92537;-73
2023/08/02 07:08:33;;;;;;;9.20;4.60;;;;;;;;;;4989610;28;93478;-73
2023/08/02 07:11:00;;;;;;;8.20;4.63;;;;;;;;;;4993083;28;92631;-73
2023/08/02 07:13:26;;;;;;;5.00;3.63;;;;;;;;;;4992408;28;92627;-73
2023/08/02 07:15:52;;;;;;;7.70;4.32;;;;;;;;;;4991038;28;93444;-72
2023/08/02 07:18:19;;;;;;;6.72;4.20;;;;;;;;;;4989770;28;94940;-73
2023/08/02 07:20:45;;;;;;;6.13;3.78;;;;;;;;;;4993569;28;97040;-73
2023/08/02 07:23:12;;;;;;;7.15;3.70;;;;;;;;;;4992359;28;93850;-73
2023/08/02 07:25:38;;;;;;;4.50;2.90;;;;;;;;;;4990160;28;92497;-73
2023/08/02 07:28:05;;;;;;;4.13;2.75;;;;;;;;;;4995495;28;93165;-73
2023/08/02 07:30:32;;;;;;;7.40;3.05;;;;;;;;;;4993038;28;92664;-73
2023/08/02 07:32:58;;;;;;;3.03;2.70;;;;;;;;;;4992245;28;93299;-73
2023/08/02 07:35:25;;;;;;;3.90;2.92;;;;;;;;;;4988756;28;93313;-73
2023/08/02 07:37:51;;;;;;;4.78;2.80;;;;;;;;;;4994037;28;92379;-73
2023/08/02 07:40:18;;;;;;;6.78;2.67;;;;;;;;;;4992619;28;93160;-73
2023/08/02 07:42:44;;;;;;;2.95;1.90;;;;;;;;;;4987086;28;95901;-73
2023/08/02 07:45:11;;;;;;;6.82;2.97;;;;;;;;;;4989369;28;94111;-73
2023/08/02 07:47:38;;;;;;;7.03;2.17;;;;;;;;;;4994325;28;94075;-73
2023/08/02 07:50:05;;;;;;;2.50;2.17;;;;;;;;;;4987393;28;92605;-74
2023/08/02 07:52:32;;;;;;;3.60;2.00;;;;;;;;;;4992272;28;92775;-73
2023/08/02 07:54:58;;;;;;;5.35;2.35;;;;;;;;;;4991960;28;93425;-73
2023/08/02 07:57:31;;;;;;;2.92;2.10;;;;;;;;;;4987875;28;92768;-74
2023/08/02 07:59:58;;;;;;;3.30;2.10;;;;;;;;;;4989622;28;93093;-73
2023/08/02 08:02:25;;;;;;;1.90;1.80;;;;;;;;;;4992591;28;93480;-73
2023/08/02 08:04:52;;;;;;;2.58;1.88;;;;;;;;;;4990746;28;92738;-73
2023/08/02 08:07:18;;;;;;;1.38;1.27;;;;;;;;;;4989704;28;94922;-73
2023/08/02 08:09:45;;;;;;;1.60;1.50;;;;;;;;;;4995683;28;93436;-73
2023/08/02 08:12:11;;;;;;;1.95;1.60;;;;;;;;;;4991947;28;92936;-73
2023/08/02 08:14:38;;;;;;;1.30;1.20;;;;;;;;;;4992474;28;93402;-73
2023/08/02 08:17:04;;;;;;;1.35;1.25;;;;;;;;;;4985507;28;92674;-72
2023/08/02 08:19:33;;;;;;;2.40;1.45;;;;;;;;;;4990828;28;94305;-73
2023/08/02 08:21:59;;;;;;;2.17;1.30;;;;;;;;;;4991144;28;93295;-73
2023/08/02 08:24:26;;;;;;;0.90;0.90;;;;;;;;;;4993252;28;91784;-73
2023/08/02 08:26:55;;;;;;;1.20;1.00;;;;;;;;;;4991659;28;92895;-73
2023/08/02 08:29:22;;;;;;;1.13;1.03;;;;;;;;;;4986967;28;93143;-73
2023/08/02 08:31:48;;;;;;;1.77;1.10;;;;;;;;;;4997379;28;94979;-75
2023/08/02 08:34:15;;;;;;;1.13;1.02;;;;;;;;;;4991868;28;93435;-73
2023/08/02 08:36:42;;;;;;;2.28;1.00;;;;;;;;;;4991070;28;92657;-73
2023/08/02 08:39:08;;;;;;;1.50;1.13;;;;;;;;;;4990017;28;92919;-73
2023/08/02 08:41:35;;;;;;;1.25;1.15;;;;;;;;;;4996388;28;93435;-74
2023/08/02 08:44:02;;;;;;;4.13;1.40;;;;;;;;;;4994960;28;92540;-73
2023/08/02 08:46:33;;;;;;;1.20;1.10;;;;;;;;;;4991342;28;93306;-73
2023/08/02 08:49:00;;;;;;;2.22;1.02;;;;;;;;;;4992938;28;92709;-73
2023/08/02 08:51:27;;;;;;;1.20;1.10;;;;;;;;;;4996052;28;92500;-74
2023/08/02 08:53:54;;;;;;;1.48;1.00;;;;;;;;;;4993858;28;93218;-73
2023/08/02 08:56:24;;;;;;;1.17;1.08;;;;;;;;;;4992688;28;94925;-74
2023/08/02 08:58:53;;;;;;;1.88;1.20;;;;;;;;;;4995758;28;95510;-75
2023/08/02 09:01:20;;;;;;;3.28;1.48;;;;;;;;;;4993746;28;93511;-74
2023/08/02 09:03:46;;;;;;;1.88;1.20;;;;;;;;;;4995556;28;92420;-73
2023/08/02 09:06:16;;;;;;;1.38;1.30;;;;;;;;;;4994176;28;94466;-73
2023/08/02 09:08:43;;;;;;;1.52;1.30;;;;;;;;;;4995285;28;93633;-73
2023/08/02 09:11:11;;;;;;;3.92;1.58;;;;;;;;;;4995156;28;92474;-73
2023/08/02 09:13:38;;;;;;;1.80;1.70;;;;;;;;;;4995540;28;93149;-74
2023/08/02 09:16:06;;;;;;;3.63;1.45;;;;;;;;;;4991931;28;93421;-74
2023/08/02 09:18:36;;;;;;;2.45;1.40;;;;;;;;;;4994039;28;93314;-74
2023/08/02 09:21:03;;;;;;;1.57;1.43;;;;;;;;;;4990337;28;96101;-75
2023/08/02 09:23:29;;;;;;;4.20;1.83;;;;;;;;;;4995261;28;92474;-75
2023/08/02 09:26:11;;;;;;;1.70;1.48;;;;;;;;;;4990017;28;93395;-74
2023/08/02 09:28:37;;;;;;;1.80;1.70;;;;;;;;;;4992478;28;93535;-74
2023/08/02 09:31:14;;;;;;;2.17;1.80;;;;;;;;;;4993514;28;92472;-74
2023/08/02 09:33:49;;;;;;;2.10;1.70;;;;;;;;;;4991358;28;93364;-74
2023/08/02 09:36:21;;;;;;;2.35;1.80;;;;;;;;;;4993141;28;93599;-74
2023/08/02 09:39:09;;;;;;;2.33;1.65;;;;;;;;;;4996546;28;92189;-74
2023/08/02 09:41:36;;;;;;;2.13;1.92;;;;;;;;;;4991756;28;94534;-74
2023/08/02 09:44:06;;;;;;;2.22;1.75;;;;;;;;;;4998604;28;92448;-74
2023/08/02 09:46:34;;;;;;;2.35;1.92;;;;;;;;;;4991896;28;94941;-74
2023/08/02 09:49:19;;;;;;;7.65;2.10;;;;;;;;;;4989965;28;93433;-74
2023/08/02 09:51:46;;;;;;;1.88;1.77;;;;;;;;;;4993786;28;92562;-74
2023/08/02 09:54:13;;;;;;;5.30;2.38;;;;;;;;;;4993984;28;93272;-74
2023/08/02 09:56:40;;;;;;;1.85;1.75;;;;;;;;;;4987988;28;93752;-74
2023/08/02 09:59:07;;;;;;;2.00;1.90;;;;;;;;;;4996598;28;92389;-74
2023/08/02 10:01:34;;;;;;;2.53;1.73;;;;;;;;;;4993960;28;93678;-74
2023/08/02 10:04:08;;;;;;;3.45;1.92;;;;;;;;;;4994225;28;91726;-74
2023/08/02 10:06:38;;;;;;;2.15;1.90;;;;;;;;;;4991022;28;92514;-74
2023/08/02 10:09:07;;;;;;;2.65;1.95;;;;;;;;;;4996522;28;93931;-74
2023/08/02 10:11:45;;;;;;;2.13;2.03;;;;;;;;;;4992557;28;96374;-74
2023/08/02 10:14:12;;;;;;;2.20;2.03;;;;;;;;;;4991111;28;96070;-74
2023/08/02 10:16:39;;;;;;;2.28;2.08;;;;;;;;;;4991102;28;93420;-74
2023/08/02 10:19:06;;;;;;;3.50;2.33;;;;;;;;;;4991920;28;92419;-74
2023/08/02 10:21:34;;;;;;;7.30;2.65;;;;;;;;;;4996340;28;93064;-74
2023/08/02 10:24:00;;;;;;;2.60;2.40;;;;;;;;;;4985957;28;92542;-74
2023/08/02 10:26:30;;;;;;;5.15;2.50;;;;;;;;;;4997255;28;92954;-74
2023/08/02 10:28:58;;;;;;;2.37;1.90;;;;;;;;;;4993471;28;92760;-74
2023/08/02 10:31:25;;;;;;;2.50;2.30;;;;;;;;;;4982647;28;92580;-74
2023/08/02 10:33:52;;;;;;;2.50;2.20;;;;;;;;;;4994672;28;93294;-74
2023/08/02 10:36:18;;;;;;;2.60;2.40;;;;;;;;;;4990441;28;95935;-74
2023/08/02 10:38:46;;;;;;;2.47;2.28;;;;;;;;;;4998281;28;93409;-74
2023/08/02 10:41:20;;;;;;;3.00;2.00;;;;;;;;;;4995951;28;93015;-74
2023/08/02 10:44:00;;;;;;;6.03;1.90;;;;;;;;;;4997302;28;92584;-74
2023/08/02 10:46:27;;;;;;;4.57;1.80;;;;;;;;;;4993847;28;93316;-74
2023/08/02 10:48:55;;;;;;;3.70;1.65;;;;;;;;;;4991111;28;93640;-74
2023/08/02 10:51:32;;;;;;;2.90;1.90;;;;;;;;;;4993132;28;92559;-74
2023/08/02 10:54:15;;;;;;;2.28;1.55;;;;;;;;;;4994346;28;93239;-74
2023/08/02 10:56:58;;;;;;;2.85;1.40;;;;;;;;;;4990835;28;93710;-74
2023/08/02 10:59:25;;;;;;;2.35;1.65;;;;;;;;;;4990695;28;92429;-74
2023/08/02 11:02:00;;;;;;;1.55;1.35;;;;;;;;;;4989729;28;95083;-73
2023/08/02 11:04:27;;;;;;;2.20;1.33;;;;;;;;;;5001579;28;94825;-73
2023/08/02 11:06:54;;;;;;;1.40;1.30;;;;;;;;;;4995417;28;92524;-74
2023/08/02 11:09:30;;;;;;;3.42;2.00;;;;;;;;;;4993057;28;93403;-74
2023/08/02 11:11:57;;;;;;;1.30;1.20;;;;;;;;;;4992779;28;92649;-73
2023/08/02 11:14:27;;;;;;;4.25;1.42;;;;;;;;;;4996770;28;92704;-73
2023/08/02 11:16:53;;;;;;;7.28;1.40;;;;;;;;;;4992610;28;93800;-73
2023/08/02 11:19:21;;;;;;;5.95;1.58;;;;;;;;;;4990782;28;91806;-73
2023/08/02 11:21:55;;;;;;;3.03;1.60;;;;;;;;;;4991402;28;92916;-73
2023/08/02 11:24:21;;;;;;;3.67;1.58;;;;;;;;;;4994683;28;93444;-73
2023/08/02 11:26:54;;;;;;;3.75;1.40;;;;;;;;;;4994651;28;95021;-73
2023/08/02 11:29:22;;;;;;;5.93;1.52;;;;;;;;;;4992783;28;95984;-73
2023/08/02 11:31:49;;;;;;;4.30;1.48;;;;;;;;;;4992796;28;93447;-73
2023/08/02 11:34:19;;;;;;;6.13;1.60;;;;;;;;;;4990326;28;94240;-73
2023/08/02 11:36:47;;;;;;;6.10;1.50;;;;;;;;;;4986920;28;94570;-73
2023/08/02 11:39:15;;;;;;;5.63;1.30;;;;;;;;;;4993256;28;92559;-73
2023/08/02 11:41:41;;;;;;;8.73;1.63;;;;;;;;;;4995337;28;93142;-73
2023/08/02 11:44:17;;;;;;;7.55;1.98;;;;;;;;;;4992536;28;93652;-73
2023/08/02 11:46:51;;;;;;;7.82;1.70;;;;;;;;;;4996081;28;93236;-73
2023/08/02 11:49:18;;;;;;;8.40;1.52;;;;;;;;;;4984782;28;93582;-73
2023/08/02 11:51:44;;;;;;;7.35;1.80;;;;;;;;;;4988055;28;95003;-74
2023/08/02 11:54:11;;;;;;;15.73;2.13;;;;;;;;;;4991823;28;95628;-73
2023/08/02 11:56:37;;;;;;;6.38;1.45;;;;;;;;;;4990464;28;93696;-72
2023/08/02 11:59:04;;;;;;;15.95;2.15;;;;;;;;;;4994874;28;94363;-72
2023/08/02 12:01:30;;;;;;;12.25;1.98;;;;;;;;;;4990610;28;93484;-73
2023/08/02 12:03:58;;;;;;;10.98;1.90;;;;;;;;;;4991750;28;93457;-74
2023/08/02 12:06:25;;;;;;;6.55;1.85;;;;;;;;;;4990095;28;92822;-73
2023/08/02 12:08:58;;;;;;;9.02;2.20;;;;;;;;;;4990585;28;94166;-73
2023/08/02 12:11:28;;;;;;;10.77;2.20;;;;;;;;;;4994248;28;96801;-73
2023/08/02 12:13:55;;;;;;;18.17;2.63;;;;;;;;;;4992997;28;93249;-73
2023/08/02 12:16:22;;;;;;;14.70;2.53;;;;;;;;;;4989250;28;95577;-73
2023/08/02 12:18:56;;;;;;;9.75;2.10;;;;;;;;;;4982453;28;93143;-72
2023/08/02 12:21:23;;;;;;;12.30;2.38;;;;;;;;;;4992030;28;93221;-73
2023/08/02 12:23:51;;;;;;;15.27;2.03;;;;;;;;;;4990814;28;93438;-73
2023/08/02 12:26:31;;;;;;;6.88;1.63;;;;;;;;;;4993019;28;92682;-73
2023/08/02 12:28:58;;;;;;;13.32;1.75;;;;;;;;;;4987171;28;93109;-73
2023/08/02 12:31:25;;;;;;;8.80;1.45;;;;;;;;;;4989219;28;93379;-73
2023/08/02 12:33:51;;;;;;;6.20;1.83;;;;;;;;;;4999185;28;92291;-73
2023/08/02 12:36:25;;;;;;;4.50;1.38;;;;;;;;;;4992892;28;93358;-73
2023/08/02 12:38:51;;;;;;;8.20;1.80;;;;;;;;;;4990386;28;92890;-74
2023/08/02 12:41:18;;;;;;;8.55;1.25;;;;;;;;;;4989577;28;94976;-73
2023/08/02 12:43:44;;;;;;;10.13;1.90;;;;;;;;;;4985912;28;93543;-73
2023/08/02 12:46:11;;;;;;;4.78;1.10;;;;;;;;;;4984175;28;92547;-73
2023/08/02 12:48:37;;;;;;;4.68;1.13;;;;;;;;;;4988589;28;93428;-73
2023/08/02 12:51:04;;;;;;;6.78;1.10;;;;;;;;;;4986682;28;95334;-73
2023/08/02 12:53:30;;;;;;;3.58;0.95;;;;;;;;;;4987762;28;92544;-73
2023/08/02 12:55:56;;;;;;;14.73;1.52;;;;;;;;;;4992061;28;93494;-73
2023/08/02 12:58:23;;;;;;;2.80;1.00;;;;;;;;;;4991677;28;91842;-73
2023/08/02 13:00:51;;;;;;;4.43;1.15;;;;;;;;;;4997677;28;92751;-73
2023/08/02 13:03:19;;;;;;;7.15;1.50;;;;;;;;;;4986520;28;93295;-73
2023/08/02 13:05:45;;;;;;;3.47;1.10;;;;;;;;;;4987281;28;94862;-73
2023/08/02 13:08:14;;;;;;;4.88;1.25;;;;;;;;;;4990631;28;95570;-73
2023/08/02 13:10:41;;;;;;;8.10;1.35;;;;;;;;;;4987466;28;93367;-73
2023/08/02 13:13:07;;;;;;;7.45;1.45;;;;;;;;;;4990303;28;92571;-73
2023/08/02 13:15:34;;;;;;;8.07;1.60;;;;;;;;;;4987043;28;93091;-75
2023/08/02 13:18:01;;;;;;;5.85;1.40;;;;;;;;;;4994353;28;95639;-70
2023/08/02 13:20:27;;;;;;;4.10;1.38;;;;;;;;;;4989782;28;93373;-71
2023/08/02 13:22:54;;;;;;;6.93;1.60;;;;;;;;;;4987396;28;93815;-71
2023/08/02 13:25:21;;;;;;;4.28;0.98;;;;;;;;;;4988098;28;92791;-71
2023/08/02 13:27:47;;;;;;;6.82;1.48;;;;;;;;;;4993279;28;93131;-71
2023/08/02 13:30:14;;;;;;;5.57;1.48;;;;;;;;;;4989016;28;95843;-70
2023/08/02 13:32:40;;;;;;;10.43;1.15;;;;;;;;;;4994974;28;92616;-71
2023/08/02 13:35:07;;;;;;;5.32;1.13;;;;;;;;;;4996518;28;93476;-71
2023/08/02 13:37:34;;;;;;;4.00;1.30;;;;;;;;;;4992509;28;93591;-71
2023/08/02 13:40:01;;;;;;;2.65;0.90;;;;;;;;;;4993758;28;92907;-71
2023/08/02 13:42:28;;;;;;;6.38;0.85;;;;;;;;;;5001145;28;92634;-70
2023/08/02 13:44:55;;;;;;;2.88;0.80;;;;;;;;;;4990983;28;92985;-71
2023/08/02 13:47:21;;;;;;;8.80;1.10;;;;;;;;;;4993816;28;93161;-71
2023/08/02 13:49:48;;;;;;;4.90;1.10;;;;;;;;;;4991083;28;93384;-71
2023/08/02 13:52:14;;;;;;;6.38;1.08;;;;;;;;;;4993562;28;92838;-71
2023/08/02 13:54:41;;;;;;;4.25;1.05;;;;;;;;;;4988745;28;96613;-71
2023/08/02 13:57:07;;;;;;;6.05;1.10;;;;;;;;;;4992535;28;93414;-71
2023/08/02 13:59:33;;;;;;;3.55;1.02;;;;;;;;;;4997765;28;92573;-71
2023/08/02 14:02:00;;;;;;;8.15;1.35;;;;;;;;;;4991378;28;92504;-72
2023/08/02 14:04:26;;;;;;;7.00;0.90;;;;;;;;;;4993123;28;93021;-71
2023/08/02 14:06:53;;;;;;;3.22;1.10;;;;;;;;;;4993958;28;93357;-72
2023/08/02 14:09:20;;;;;;;4.15;1.00;;;;;;;;;;4992870;28;93559;-71
2023/08/02 14:11:46;;;;;;;6.28;1.63;;;;;;;;;;4994896;28;91833;-71
2023/08/02 14:14:12;;;;;;;8.63;1.38;;;;;;;;;;4993274;28;92662;-71
2023/08/02 14:16:39;;;;;;;5.57;1.67;;;;;;;;;;4994279;28;94912;-71
2023/08/02 14:19:06;;;;;;;9.05;1.67;;;;;;;;;;4991925;28;94916;-71
2023/08/02 14:21:32;;;;;;;3.78;1.60;;;;;;;;;;4994510;28;95530;-71
2023/08/02 14:23:59;;;;;;;7.60;1.67;;;;;;;;;;4991574;28;92597;-70
2023/08/02 14:26:25;;;;;;;10.80;2.17;;;;;;;;;;4993475;28;93549;-70
2023/08/02 14:28:53;;;;;;;20.95;2.20;;;;;;;;;;4991779;28;93430;-70
2023/08/02 14:31:20;;;;;;;12.75;1.95;;;;;;;;;;4994069;28;94979;-70
2023/08/02 14:33:47;;;;;;;14.40;1.95;;;;;;;;;;4983147;28;92511;-70
2023/08/02 14:36:13;;;;;;;12.63;2.13;;;;;;;;;;4993368;28;93158;-70
2023/08/02 14:38:40;;;;;;;10.57;2.22;;;;;;;;;;4988220;28;92456;-70